createdAt,value
2022-08-25T00:02:00.716Z,2.30
2022-08-25T00:04:30.072Z,2.38
2022-08-25T00:07:02.110Z,2.65
2022-08-25T00:09:31.368Z,2.45
2022-08-25T00:11:58.485Z,2.57
2022-08-25T00:14:28.964Z,2.70
2022-08-25T00:16:56.129Z,2.50
2022-08-25T00:19:26.744Z,2.90
2022-08-25T00:21:56.237Z,2.40
2022-08-25T00:24:23.718Z,2.63
2022-08-25T00:26:54.015Z,2.95
2022-08-25T00:29:22.228Z,2.40
2022-08-25T00:31:49.163Z,2.55
2022-08-25T00:34:19.050Z,2.40
2022-08-25T00:36:47.056Z,2.42
2022-08-25T00:39:14.278Z,2.53
2022-08-25T00:41:43.075Z,2.60
2022-08-25T00:44:13.081Z,2.50
2022-08-25T00:46:48.772Z,2.35
2022-08-25T00:49:24.856Z,2.45
2022-08-25T00:52:02.397Z,2.75
2022-08-25T00:54:44.707Z,2.50
2022-08-25T00:57:14.001Z,2.88
2022-08-25T00:59:41.035Z,2.50
2022-08-25T01:02:10.301Z,2.90
2022-08-25T01:04:49.052Z,2.90
2022-08-25T01:07:18.813Z,3.03
2022-08-25T01:09:47.746Z,2.80
2022-08-25T01:12:14.861Z,2.88
2022-08-25T01:14:42.317Z,2.80
2022-08-25T01:17:09.464Z,2.67
2022-08-25T01:19:36.256Z,3.28
2022-08-25T01:22:02.988Z,3.10
2022-08-25T01:24:38.635Z,2.65
2022-08-25T01:27:06.565Z,2.70
2022-08-25T01:29:35.886Z,3.03
2022-08-25T01:32:08.880Z,2.80
2022-08-25T01:34:38.140Z,3.03
2022-08-25T01:39:38.850Z,3.40
2022-08-25T01:42:18.475Z,3.25
2022-08-25T01:44:46.906Z,3.50
2022-08-25T01:47:14.638Z,2.78
2022-08-25T01:49:41.292Z,3.00
2022-08-25T01:52:33.397Z,3.00
2022-08-25T01:55:00.092Z,2.80
2022-08-25T01:57:30.069Z,3.30
2022-08-25T01:59:56.652Z,3.53
2022-08-25T02:02:23.338Z,3.00
2022-08-25T02:04:52.780Z,3.17
2022-08-25T02:07:20.204Z,3.22
2022-08-25T02:09:46.957Z,3.25
2022-08-25T02:12:13.841Z,3.13
2022-08-25T02:14:40.610Z,3.55
2022-08-25T02:17:09.695Z,3.35
2022-08-25T02:19:36.277Z,3.30
2022-08-25T02:22:03.260Z,3.30
2022-08-25T02:24:29.878Z,3.30
2022-08-25T02:26:57.949Z,3.38
2022-08-25T02:29:24.786Z,3.35
2022-08-25T02:31:51.352Z,3.40
2022-08-25T02:34:18.407Z,3.95
2022-08-25T02:36:44.960Z,3.40
2022-08-25T02:39:12.083Z,3.40
2022-08-25T02:41:39.026Z,3.67
2022-08-25T02:44:06.716Z,3.15
2022-08-25T02:46:33.391Z,3.53
2022-08-25T02:49:00.045Z,3.00
2022-08-25T02:51:31.815Z,3.75
2022-08-25T02:54:01.197Z,3.60
2022-08-25T02:56:29.026Z,3.97
2022-08-25T02:58:55.847Z,3.15
2022-08-25T03:01:28.455Z,4.00
2022-08-25T03:03:56.744Z,3.65
2022-08-25T03:06:24.454Z,3.25
2022-08-25T03:08:51.994Z,3.45
2022-08-25T03:11:18.974Z,3.38
2022-08-25T03:13:45.688Z,3.40
2022-08-25T03:16:12.515Z,4.07
2022-08-25T03:18:41.546Z,3.85
2022-08-25T03:21:11.881Z,3.97
2022-08-25T03:23:39.772Z,3.85
2022-08-25T03:26:25.665Z,3.78
2022-08-25T03:28:52.471Z,3.60
2022-08-25T03:31:19.146Z,3.78
2022-08-25T03:33:46.124Z,3.75
2022-08-25T03:36:12.692Z,3.60
2022-08-25T03:38:40.228Z,3.70
2022-08-25T03:41:24.516Z,3.65
2022-08-25T03:43:55.203Z,4.07
2022-08-25T03:46:31.180Z,3.90
2022-08-25T03:49:00.596Z,3.70
2022-08-25T03:51:33.233Z,4.13
2022-08-25T03:54:01.220Z,3.83
2022-08-25T03:56:28.129Z,3.70
2022-08-25T03:58:55.606Z,3.90
2022-08-25T04:01:22.557Z,3.70
2022-08-25T04:03:49.442Z,3.75
2022-08-25T04:06:17.723Z,4.50
2022-08-25T04:08:44.754Z,4.13
2022-08-25T04:11:20.279Z,4.65
2022-08-25T04:13:47.533Z,3.72
2022-08-25T04:16:18.742Z,3.92
2022-08-25T04:18:46.943Z,3.95
2022-08-25T04:21:14.341Z,3.65
2022-08-25T04:23:43.043Z,4.28
2022-08-25T04:26:22.088Z,3.78
2022-08-25T04:28:49.334Z,3.78
2022-08-25T04:31:17.620Z,4.15
2022-08-25T04:33:44.499Z,3.73
2022-08-25T04:36:12.531Z,4.18
2022-08-25T04:38:40.577Z,4.22
2022-08-25T04:41:08.686Z,4.32
2022-08-25T04:43:36.267Z,4.30
2022-08-25T04:46:08.058Z,3.97
2022-08-25T04:48:35.022Z,4.25
2022-08-25T04:51:06.180Z,4.22
2022-08-25T04:53:33.891Z,4.13
2022-08-25T04:56:03.861Z,4.20
2022-08-25T04:58:30.765Z,4.75
2022-08-25T05:01:09.067Z,4.15
2022-08-25T05:03:36.051Z,4.60
2022-08-25T05:06:03.585Z,5.53
2022-08-25T05:08:31.262Z,4.20
2022-08-25T05:10:58.240Z,4.30
2022-08-25T05:13:25.804Z,4.95
2022-08-25T05:15:58.417Z,4.55
2022-08-25T05:18:30.236Z,4.65
2022-08-25T05:21:01.153Z,4.55
2022-08-25T05:23:27.738Z,4.43
2022-08-25T05:25:54.470Z,4.68
2022-08-25T05:28:21.573Z,4.63
2022-08-25T05:30:49.406Z,4.55
2022-08-25T05:33:17.004Z,4.32
2022-08-25T05:35:43.872Z,4.30
2022-08-25T05:38:15.363Z,4.43
2022-08-25T05:40:42.260Z,4.65
2022-08-25T05:43:09.079Z,4.43
2022-08-25T05:45:35.906Z,4.60
2022-08-25T05:48:02.830Z,6.18
2022-08-25T05:50:29.944Z,5.28
2022-08-25T05:52:56.480Z,5.45
2022-08-25T05:55:23.795Z,4.72
2022-08-25T05:57:50.860Z,4.80
2022-08-25T06:00:18.901Z,5.07
2022-08-25T06:02:47.018Z,4.95
2022-08-25T06:05:20.852Z,5.40
2022-08-25T06:07:51.232Z,5.75
2022-08-25T06:10:19.415Z,5.95
2022-08-25T06:12:46.819Z,6.07
2022-08-25T06:15:16.673Z,5.82
2022-08-25T06:17:44.290Z,6.10
2022-08-25T06:20:15.975Z,6.55
2022-08-25T06:22:43.449Z,6.97
2022-08-25T06:25:11.920Z,6.80
2022-08-25T06:27:39.193Z,6.88
2022-08-25T06:30:08.231Z,6.50
2022-08-25T06:32:39.931Z,6.20
2022-08-25T06:35:10.365Z,6.43
2022-08-25T06:37:37.378Z,5.90
2022-08-25T06:40:06.991Z,5.50
2022-08-25T06:42:33.760Z,5.97
2022-08-25T06:45:01.240Z,5.70
2022-08-25T06:47:27.948Z,6.25
2022-08-25T06:49:54.487Z,6.50
2022-08-25T06:52:21.127Z,5.78
2022-08-25T06:54:49.094Z,5.90
2022-08-25T06:57:15.815Z,6.35
2022-08-25T06:59:42.375Z,5.32
2022-08-25T07:02:09.651Z,6.20
2022-08-25T07:04:36.776Z,6.43
2022-08-25T07:07:03.988Z,6.88
2022-08-25T07:09:31.111Z,7.05
2022-08-25T07:11:58.710Z,6.20
2022-08-25T07:14:25.359Z,6.13
2022-08-25T07:16:51.954Z,6.28
2022-08-25T07:19:20.785Z,6.35
2022-08-25T07:21:51.620Z,6.40
2022-08-25T07:24:18.390Z,6.28
2022-08-25T07:26:46.646Z,6.93
2022-08-25T07:29:20.749Z,5.97
2022-08-25T07:31:59.083Z,6.85
2022-08-25T07:34:44.659Z,6.22
2022-08-25T07:37:27.510Z,6.57
2022-08-25T07:40:07.330Z,6.50
2022-08-25T07:42:33.980Z,6.53
2022-08-25T07:45:00.646Z,6.80
2022-08-25T07:47:27.190Z,6.40
2022-08-25T07:49:53.756Z,6.35
2022-08-25T07:52:21.350Z,5.90
2022-08-25T07:54:47.959Z,6.05
2022-08-25T07:57:14.545Z,6.40
2022-08-25T07:59:42.228Z,6.18
2022-08-25T08:02:18.618Z,6.18
2022-08-25T08:04:48.330Z,6.05
2022-08-25T08:07:17.456Z,5.97
2022-08-25T08:09:44.071Z,5.68
2022-08-25T08:12:11.785Z,5.60
2022-08-25T08:14:38.379Z,5.68
2022-08-25T08:17:12.583Z,5.43
2022-08-25T08:19:43.107Z,5.53
2022-08-25T08:22:14.956Z,5.75
2022-08-25T08:24:56.177Z,5.55
2022-08-25T08:27:24.479Z,5.35
2022-08-25T08:29:52.148Z,5.43
2022-08-25T08:32:18.919Z,5.43
2022-08-25T08:34:46.939Z,5.63
2022-08-25T08:37:18.941Z,5.28
2022-08-25T08:39:51.066Z,4.75
2022-08-25T08:45:35.287Z,5.00
2022-08-25T08:48:31.481Z,4.22
2022-08-25T08:51:20.392Z,4.55
2022-08-25T08:54:16.605Z,3.95
2022-08-25T08:56:48.577Z,3.97
2022-08-25T08:59:22.084Z,4.10
2022-08-25T09:02:00.519Z,3.72
2022-08-25T09:04:55.583Z,3.80
2022-08-25T09:07:54.862Z,4.18
2022-08-25T09:10:24.380Z,3.40
2022-08-25T09:13:20.207Z,3.70
2022-08-25T09:16:34.258Z,3.60
2022-08-25T09:19:42.945Z,3.55
2022-08-25T09:22:35.398Z,2.88
2022-08-25T09:25:48.647Z,2.97
2022-08-25T09:28:40.738Z,3.40
2022-08-25T09:31:42.458Z,3.30
2022-08-25T09:34:22.028Z,3.20
2022-08-25T09:36:52.721Z,2.95
2022-08-25T09:39:20.891Z,2.78
2022-08-25T09:41:51.995Z,3.63
2022-08-25T09:44:20.983Z,2.90
2022-08-25T09:47:04.279Z,3.13
2022-08-25T09:49:45.893Z,3.10
2022-08-25T09:52:21.513Z,2.70
2022-08-25T09:54:50.509Z,3.05
2022-08-25T09:57:44.075Z,2.75
2022-08-25T10:00:28.416Z,3.42
2022-08-25T10:03:18.414Z,3.27
2022-08-25T10:05:58.553Z,3.35
2022-08-25T10:08:39.628Z,3.33
2022-08-25T10:11:15.341Z,3.38
2022-08-25T10:13:56.297Z,3.38
2022-08-25T10:16:36.070Z,3.25
2022-08-25T10:19:10.056Z,3.00
2022-08-25T10:21:39.549Z,3.38
2022-08-25T10:24:08.357Z,3.13
2022-08-25T10:26:47.600Z,2.70
2022-08-25T10:29:32.629Z,3.17
2022-08-25T10:32:48.532Z,3.40
2022-08-25T10:35:24.411Z,4.60
2022-08-25T10:38:28.723Z,3.17
2022-08-25T10:41:25.409Z,3.13
2022-08-25T10:43:58.644Z,3.20
2022-08-25T10:46:59.591Z,3.50
2022-08-25T10:49:49.934Z,3.60
2022-08-25T10:53:00.205Z,3.60
2022-08-25T10:55:35.265Z,3.80
2022-08-25T10:58:24.176Z,3.97
2022-08-25T11:01:19.595Z,4.45
2022-08-25T11:04:25.985Z,4.13
2022-08-25T11:07:16.693Z,4.38
2022-08-25T11:10:02.833Z,4.20
2022-08-25T11:12:43.592Z,4.47
2022-08-25T11:15:12.394Z,3.92
2022-08-25T11:17:52.710Z,3.95
2022-08-25T11:20:33.556Z,4.50
2022-08-25T11:23:23.837Z,3.53
2022-08-25T11:26:00.371Z,3.65
2022-08-25T11:28:44.446Z,3.30
2022-08-25T11:31:11.996Z,3.28
2022-08-25T11:33:39.472Z,2.88
2022-08-25T11:39:01.033Z,3.05
2022-08-25T11:42:10.748Z,2.97
2022-08-25T11:45:10.509Z,2.65
2022-08-25T11:48:22.062Z,2.97
2022-08-25T11:51:08.261Z,3.05
2022-08-25T11:53:42.482Z,3.00
2022-08-25T11:56:34.810Z,3.20
2022-08-25T11:59:03.611Z,3.63
2022-08-25T12:01:42.774Z,3.80
2022-08-25T12:04:44.196Z,4.25
2022-08-25T12:07:19.708Z,3.75
2022-08-25T12:09:54.527Z,3.20
2022-08-25T12:12:44.984Z,3.85
2022-08-25T12:16:01.045Z,3.83
2022-08-25T12:18:32.092Z,3.75
2022-08-25T12:20:58.893Z,3.97
2022-08-25T12:23:31.989Z,3.72
2022-08-25T12:26:32.198Z,3.60
2022-08-25T12:29:35.030Z,3.30
2022-08-25T12:32:25.501Z,3.88
2022-08-25T12:34:54.133Z,3.50
2022-08-25T12:37:27.936Z,3.65
2022-08-25T12:40:09.136Z,3.80
2022-08-25T12:42:44.392Z,4.00
2022-08-25T12:45:33.494Z,3.72
2022-08-25T12:48:25.887Z,3.60
2022-08-25T12:51:19.897Z,4.05
2022-08-25T12:54:11.448Z,3.90
2022-08-25T12:56:47.622Z,4.10
2022-08-25T12:59:19.122Z,3.92
2022-08-25T13:02:18.870Z,3.72
2022-08-25T13:05:02.448Z,3.80
2022-08-25T13:08:00.059Z,3.83
2022-08-25T13:10:38.277Z,3.70
2022-08-25T13:13:47.435Z,3.65
2022-08-25T13:16:29.528Z,4.05
2022-08-25T13:18:59.211Z,3.72
2022-08-25T13:21:38.199Z,3.72
2022-08-25T13:24:27.661Z,3.58
2022-08-25T13:27:03.621Z,4.13
2022-08-25T13:29:37.287Z,4.13
2022-08-25T13:32:17.603Z,4.00
2022-08-25T13:34:45.343Z,3.83
2022-08-25T13:37:37.499Z,4.68
2022-08-25T13:40:26.774Z,3.67
2022-08-25T13:42:59.617Z,4.03
2022-08-25T13:45:32.741Z,3.40
2022-08-25T13:48:21.109Z,3.80
2022-08-25T13:50:52.880Z,3.72
2022-08-25T13:53:26.274Z,3.70
2022-08-25T13:55:59.665Z,3.60
2022-08-25T13:58:44.891Z,3.50
2022-08-25T14:01:23.295Z,3.65
2022-08-25T14:04:24.466Z,3.70
2022-08-25T14:07:12.324Z,3.53
2022-08-25T14:09:46.533Z,3.63
2022-08-25T14:12:29.423Z,3.55
2022-08-25T14:15:05.177Z,3.72
2022-08-25T14:17:39.800Z,3.35
2022-08-25T14:20:18.783Z,3.30
2022-08-25T14:25:12.268Z,3.17
2022-08-25T14:28:03.726Z,2.92
2022-08-25T14:30:32.665Z,3.38
2022-08-25T14:33:03.922Z,3.50
2022-08-25T14:35:31.762Z,3.30
2022-08-25T14:37:58.870Z,3.65
2022-08-25T14:40:26.041Z,3.42
2022-08-25T14:42:53.998Z,3.38
2022-08-25T14:45:20.620Z,3.60
2022-08-25T14:47:49.849Z,3.40
2022-08-25T14:50:20.125Z,3.25
2022-08-25T14:52:48.150Z,3.08
2022-08-25T14:55:31.309Z,3.55
2022-08-25T14:57:58.642Z,3.70
2022-08-25T15:00:25.971Z,3.80
2022-08-25T15:02:55.062Z,3.63
2022-08-25T15:05:28.467Z,3.70
2022-08-25T15:08:14.929Z,3.85
2022-08-25T15:10:43.346Z,3.70
2022-08-25T15:13:10.820Z,3.50
2022-08-25T15:15:52.689Z,3.40
2022-08-25T15:18:21.455Z,3.38
2022-08-25T15:20:50.083Z,3.55
2022-08-25T15:23:20.235Z,3.80
2022-08-25T15:25:52.804Z,3.90
2022-08-25T15:28:22.368Z,3.40
2022-08-25T15:30:51.580Z,3.95
2022-08-25T15:33:18.941Z,4.35
2022-08-25T15:35:46.185Z,3.50
2022-08-25T15:38:13.184Z,3.72
2022-08-25T15:43:08.206Z,3.97
2022-08-25T15:45:36.499Z,3.80
2022-08-25T15:48:06.855Z,4.20
2022-08-25T15:50:36.560Z,4.30
2022-08-25T15:53:03.325Z,4.20
2022-08-25T15:55:30.239Z,4.32
2022-08-25T15:58:00.665Z,3.83
2022-08-25T16:00:27.630Z,4.10
2022-08-25T16:03:00.471Z,3.80
2022-08-25T16:05:27.681Z,3.85
2022-08-25T16:07:57.043Z,4.15
2022-08-25T16:10:23.814Z,3.83
2022-08-25T16:12:52.286Z,3.93
2022-08-25T16:15:24.161Z,4.15
2022-08-25T16:18:00.802Z,4.00
2022-08-25T16:20:29.030Z,3.83
2022-08-25T16:22:55.709Z,4.13
2022-08-25T16:25:22.501Z,4.13
2022-08-25T16:27:49.381Z,4.25
2022-08-25T16:30:17.567Z,4.18
2022-08-25T16:32:47.476Z,4.07
2022-08-25T16:35:14.373Z,3.88
2022-08-25T16:37:41.460Z,4.18
2022-08-25T16:40:13.195Z,4.25
2022-08-25T16:42:41.805Z,3.83
2022-08-25T16:47:38.080Z,3.60
2022-08-25T16:50:09.123Z,3.88
2022-08-25T16:52:56.137Z,3.95
2022-08-25T16:55:28.950Z,3.38
2022-08-25T16:58:07.686Z,3.80
2022-08-25T17:00:37.904Z,3.67
2022-08-25T17:03:05.000Z,3.83
2022-08-25T17:05:33.615Z,3.40
2022-08-25T17:08:19.520Z,5.82
2022-08-25T17:10:48.243Z,4.25
2022-08-25T17:13:15.382Z,5.30
2022-08-25T17:15:45.339Z,4.65
2022-08-25T17:18:15.403Z,4.75
2022-08-25T17:20:45.430Z,4.93
2022-08-25T17:23:12.950Z,4.97
2022-08-25T17:25:42.956Z,4.10
2022-08-25T17:28:12.197Z,4.30
2022-08-25T17:30:39.993Z,3.75
2022-08-25T17:33:06.721Z,4.97
2022-08-25T17:35:39.352Z,4.03
2022-08-25T17:38:06.661Z,4.40
2022-08-25T17:40:33.993Z,4.40
2022-08-25T17:43:02.336Z,4.90
2022-08-25T17:45:29.288Z,4.05
2022-08-25T17:47:59.522Z,3.90
2022-08-25T17:50:28.613Z,3.22
2022-08-25T17:53:05.940Z,3.87
2022-08-25T17:55:32.746Z,3.83
2022-08-25T17:57:59.386Z,3.83
2022-08-25T18:00:26.582Z,4.07
2022-08-25T18:02:53.588Z,3.67
2022-08-25T18:05:23.436Z,3.72
2022-08-25T18:07:54.957Z,5.28
2022-08-25T18:10:29.474Z,6.32
2022-08-25T18:12:58.109Z,4.50
2022-08-25T18:15:28.874Z,4.28
2022-08-25T18:17:58.325Z,4.82
2022-08-25T18:20:26.986Z,4.30
2022-08-25T18:22:59.976Z,4.80
2022-08-25T18:25:28.204Z,4.60
2022-08-25T18:27:57.095Z,4.57
2022-08-25T18:30:26.364Z,4.97
2022-08-25T18:32:55.926Z,4.20
2022-08-25T18:35:26.504Z,4.35
2022-08-25T18:38:12.638Z,5.68
2022-08-25T18:40:39.504Z,4.40
2022-08-25T18:43:08.361Z,4.55
2022-08-25T18:45:44.407Z,5.53
2022-08-25T18:48:11.049Z,5.13
2022-08-25T18:50:40.547Z,5.30
2022-08-25T18:53:09.023Z,4.78
2022-08-25T18:55:37.656Z,4.93
2022-08-25T18:58:06.041Z,4.80
2022-08-25T19:03:03.263Z,4.68
2022-08-25T19:05:33.065Z,4.03
2022-08-25T19:08:02.023Z,4.32
2022-08-25T19:10:30.198Z,3.95
2022-08-25T19:13:07.743Z,4.50
2022-08-25T19:15:36.472Z,4.10
2022-08-25T19:18:06.805Z,4.57
2022-08-25T19:23:22.210Z,5.35
2022-08-25T19:25:48.974Z,5.95
2022-08-25T19:28:18.326Z,4.53
2022-08-25T19:30:50.014Z,4.50
2022-08-25T19:33:42.218Z,4.82
2022-08-25T19:36:08.728Z,4.70
2022-08-25T19:38:39.476Z,4.93
2022-08-25T19:41:14.532Z,4.82
2022-08-25T19:43:55.644Z,4.70
2022-08-25T19:46:32.630Z,4.30
2022-08-25T19:49:07.220Z,5.13
2022-08-25T19:51:39.221Z,5.10
2022-08-25T19:54:06.824Z,4.65
2022-08-25T19:56:36.533Z,4.50
2022-08-25T19:59:05.594Z,3.83
2022-08-25T20:01:33.473Z,4.38
2022-08-25T20:04:00.286Z,4.70
2022-08-25T20:06:29.824Z,4.38
2022-08-25T20:09:00.447Z,4.38
2022-08-25T20:11:29.087Z,4.50
2022-08-25T20:13:58.284Z,4.45
2022-08-25T20:16:28.500Z,4.70
2022-08-25T20:18:55.143Z,4.63
2022-08-25T20:21:24.552Z,5.47
2022-08-25T20:24:10.635Z,4.63
2022-08-25T20:26:37.240Z,4.60
2022-08-25T20:29:05.156Z,4.90
2022-08-25T20:31:32.417Z,4.95
2022-08-25T20:34:00.947Z,4.65
2022-08-25T20:36:32.581Z,5.30
2022-08-25T20:38:59.297Z,4.40
2022-08-25T20:41:26.173Z,5.13
2022-08-25T20:43:53.527Z,4.63
2022-08-25T20:46:20.588Z,4.47
2022-08-25T20:48:47.197Z,4.85
2022-08-25T20:51:16.602Z,5.10
2022-08-25T20:53:45.349Z,5.03
2022-08-25T20:56:15.029Z,4.47
2022-08-25T20:58:43.216Z,4.90
2022-08-25T21:01:20.414Z,5.63
2022-08-25T21:03:50.637Z,5.20
2022-08-25T21:06:18.972Z,5.32
2022-08-25T21:08:48.694Z,6.50
2022-08-25T21:11:18.517Z,4.70
2022-08-25T21:13:46.876Z,5.32
2022-08-25T21:16:17.952Z,5.50
2022-08-25T21:18:48.122Z,4.95
2022-08-25T21:21:19.012Z,5.55
2022-08-25T21:23:49.674Z,4.90
2022-08-25T21:26:22.733Z,4.85
2022-08-25T21:28:50.003Z,4.10
2022-08-25T21:31:18.097Z,3.95
2022-08-25T21:33:49.814Z,4.50
2022-08-25T21:36:19.406Z,4.97
2022-08-25T21:38:48.072Z,4.53
2022-08-25T21:41:21.286Z,4.03
2022-08-25T21:43:49.498Z,4.50
2022-08-25T21:46:19.798Z,4.25
2022-08-25T21:48:51.129Z,4.00
2022-08-25T21:51:24.787Z,4.13
2022-08-25T21:53:51.939Z,3.80
2022-08-25T21:56:22.489Z,4.18
2022-08-25T21:58:52.859Z,4.35
2022-08-25T22:01:20.399Z,4.18
2022-08-25T22:03:48.212Z,4.05
2022-08-25T22:06:16.303Z,4.22
2022-08-25T22:08:43.173Z,3.97
2022-08-25T22:11:14.750Z,4.00
2022-08-25T22:13:44.135Z,3.60
2022-08-25T22:16:12.271Z,4.00
2022-08-25T22:18:42.234Z,4.35
2022-08-25T22:21:09.633Z,4.10
2022-08-25T22:23:44.175Z,4.38
2022-08-25T22:26:15.144Z,4.40
2022-08-25T22:28:46.481Z,3.75
2022-08-25T22:31:14.568Z,4.90
2022-08-25T22:33:47.616Z,3.97
2022-08-25T22:36:29.770Z,4.22
2022-08-25T22:38:58.791Z,4.20
2022-08-25T22:41:31.565Z,3.67
2022-08-25T22:44:06.632Z,4.63
2022-08-25T22:46:33.787Z,3.78
2022-08-25T22:49:02.594Z,4.13
2022-08-25T22:51:36.834Z,4.15
2022-08-25T22:54:05.637Z,4.00
2022-08-25T22:56:38.781Z,4.32
2022-08-25T22:59:10.594Z,4.47
2022-08-25T23:01:37.776Z,4.35
2022-08-25T23:04:06.982Z,4.13
2022-08-25T23:06:34.538Z,4.32
2022-08-25T23:09:02.198Z,4.22
2022-08-25T23:11:29.715Z,4.15
2022-08-25T23:14:00.338Z,4.70
2022-08-25T23:16:28.915Z,4.30
2022-08-25T23:18:55.477Z,4.25
2022-08-25T23:21:42.444Z,4.30
2022-08-25T23:24:11.084Z,4.22
2022-08-25T23:26:42.518Z,4.25
2022-08-25T23:29:17.988Z,4.20
2022-08-25T23:31:46.290Z,3.88
2022-08-25T23:34:13.692Z,3.97
2022-08-25T23:36:40.873Z,3.83
2022-08-25T23:39:09.011Z,4.30
2022-08-25T23:41:36.854Z,4.28
2022-08-25T23:44:05.825Z,4.32
2022-08-25T23:46:38.096Z,4.10
2022-08-25T23:49:06.262Z,4.00
2022-08-25T23:51:38.063Z,5.45
2022-08-25T23:54:09.502Z,4.50
2022-08-25T23:56:42.337Z,4.75
2022-08-25T23:59:14.441Z,4.53
